Time;durP1;ratioP1;P1;durP2;ratioP2;P2;SDS_P1;SDS_P2;PMS_P1;PMS_P2;Temp;Humidity;BMP_temperature;BMP_pressure;BME280_temperature;BME280_humidity;BME280_pressure;Samples;Min_cycle;Max_cycle;Signal;HPM_P1;HPM_P2
2022/05/22 00:02:03;;;;;;;6.72;2.80;;;;;;;7.14;44.01;98286.22;5073326;28;20043;-68
2022/05/22 00:04:29;;;;;;;10.07;2.90;;;;;;;7.14;43.83;98275.63;5092857;28;20614;-67
2022/05/22 00:06:54;;;;;;;4.38;2.70;;;;;;;7.20;43.44;98278.63;5068973;28;20048;-67
2022/05/22 00:09:19;;;;;;;6.45;2.75;;;;;;;7.12;43.70;98288.13;5050545;28;20037;-63
2022/05/22 00:11:44;;;;;;;6.18;2.25;;;;;;;7.26;43.33;98277.28;5097763;28;20038;-63
2022/05/22 00:14:12;;;;;;;5.00;3.15;;;;;;;7.11;44.07;98275.88;5081097;27;20595;-64
2022/05/22 00:16:41;;;;;;;6.28;2.28;;;;;;;7.09;43.77;98272.50;5083326;27;20043;-69
2022/05/22 00:19:15;;;;;;;4.88;2.05;;;;;;;7.11;43.51;98275.88;5067618;27;20039;-67
2022/05/22 00:21:42;;;;;;;3.83;2.22;;;;;;;7.03;43.91;98279.13;5066614;27;20046;-63
2022/05/22 00:24:08;;;;;;;5.82;3.00;;;;;;;6.92;44.43;98274.66;5082310;27;20081;-68
2022/05/22 00:26:36;;;;;;;5.32;2.85;;;;;;;6.86;44.02;98269.00;5099269;27;20524;-68
2022/05/22 00:29:01;;;;;;;8.77;2.97;;;;;;;6.90;43.93;98273.94;5063544;27;20497;-68
2022/05/22 00:31:25;;;;;;;5.70;3.25;;;;;;;6.85;44.50;98273.47;5098866;27;20047;-68
2022/05/22 00:33:50;;;;;;;5.70;2.58;;;;;;;6.86;44.42;98272.50;5098508;27;20057;-65
2022/05/22 00:36:15;;;;;;;3.88;3.10;;;;;;;6.84;44.23;98269.13;5080376;27;20051;-65
2022/05/22 00:38:40;;;;;;;6.38;2.65;;;;;;;6.89;44.04;98266.09;5080019;27;20045;-62
2022/05/22 00:41:06;;;;;;;4.90;2.85;;;;;;;6.86;43.90;98269.00;5063499;27;20058;-62
2022/05/22 00:43:34;;;;;;;11.48;3.47;;;;;;;6.91;43.93;98264.19;5098336;27;20060;-63
2022/05/22 00:46:01;;;;;;;3.92;2.28;;;;;;;6.87;43.78;98263.59;5079658;27;20062;-63
2022/05/22 00:48:26;;;;;;;2.90;2.42;;;;;;;6.83;43.90;98259.50;5062328;27;20543;-62
2022/05/22 00:50:54;;;;;;;4.63;2.45;;;;;;;6.75;44.08;98259.25;5097500;27;20043;-66
2022/05/22 00:53:24;;;;;;;3.83;2.25;;;;;;;6.73;44.13;98265.63;5046217;27;20497;-65
2022/05/22 00:55:49;;;;;;;6.15;3.47;;;;;;;6.64;44.36;98253.94;5098031;27;20519;-67
2022/05/22 00:58:19;;;;;;;5.35;2.80;;;;;;;6.67;44.36;98266.94;5097391;27;20058;-68
2022/05/22 01:00:44;;;;;;;4.30;2.70;;;;;;;6.65;44.21;98247.69;5098458;27;20047;-69
2022/05/22 01:03:28;;;;;;;4.80;2.63;;;;;;;6.72;44.08;98248.91;5079797;27;20049;-69
2022/05/22 01:06:01;;;;;;;4.75;2.80;;;;;;;6.71;44.33;98263.09;5062322;27;20416;-67
2022/05/22 01:08:27;;;;;;;4.95;2.47;;;;;;;6.66;44.20;98257.28;5098119;27;20059;-69
2022/05/22 01:10:57;;;;;;;6.57;2.80;;;;;;;6.66;44.05;98244.06;5081293;27;20107;-69
2022/05/22 01:13:27;;;;;;;7.45;3.00;;;;;;;6.62;44.14;98242.63;5062875;27;20031;-69
2022/05/22 01:15:52;;;;;;;5.85;2.80;;;;;;;6.64;43.79;98242.50;5062008;27;20043;-69
2022/05/22 01:18:17;;;;;;;3.80;2.53;;;;;;;6.51;44.10;98254.06;5078956;27;20485;-68
2022/05/22 01:20:50;;;;;;;5.35;2.88;;;;;;;6.62;43.51;98253.22;5061946;27;20043;-68
2022/05/22 01:23:20;;;;;;;3.92;2.30;;;;;;;6.61;43.57;98253.34;5090581;27;20043;-70
2022/05/22 01:25:45;;;;;;;5.63;2.83;;;;;;;6.47;43.80;98244.66;5039102;28;20522;-70
2022/05/22 01:28:14;;;;;;;8.27;3.15;;;;;;;6.44;43.86;98236.09;5038318;28;20040;-69
2022/05/22 01:30:38;;;;;;;11.48;3.30;;;;;;;6.40;44.17;98251.38;5056855;28;20109;-74
2022/05/22 01:33:07;;;;;;;6.97;2.25;;;;;;;6.38;44.18;98239.22;5024471;28;20036;-69
2022/05/22 01:35:33;;;;;;;7.07;3.33;;;;;;;6.39;44.23;98240.91;5042227;28;20157;-67
2022/05/22 01:38:02;;;;;;;6.38;3.42;;;;;;;6.35;44.53;98239.44;5057108;28;20044;-66
2022/05/22 01:40:27;;;;;;;6.97;3.05;;;;;;;6.38;44.38;98226.84;5023085;28;20040;-67
2022/05/22 01:42:52;;;;;;;6.30;2.90;;;;;;;6.43;44.24;98226.50;5056332;28;20044;-68
2022/05/22 01:45:26;;;;;;;7.80;3.03;;;;;;;6.47;44.55;98238.50;5082850;28;20418;-68
2022/05/22 01:47:52;;;;;;;6.80;3.30;;;;;;;6.46;44.28;98227.06;5040044;28;20143;-69
2022/05/22 01:50:21;;;;;;;4.45;2.53;;;;;;;6.49;44.38;98226.84;5039357;28;20040;-72
2022/05/22 01:52:46;;;;;;;5.63;3.17;;;;;;;6.51;44.14;98230.22;5040146;28;20094;-69
2022/05/22 01:55:12;;;;;;;5.03;3.13;;;;;;;6.51;44.05;98222.28;5040609;28;20052;-69
2022/05/22 01:57:41;;;;;;;8.50;2.88;;;;;;;6.58;44.30;98227.94;5057075;28;20043;-70
2022/05/22 02:00:13;;;;;;;6.97;3.17;;;;;;;6.65;43.94;98230.97;5024387;28;20039;-70
2022/05/22 02:02:41;;;;;;;4.82;2.75;;;;;;;6.67;43.99;98224.56;5071485;28;20024;-71
2022/05/22 02:05:10;;;;;;;4.82;2.78;;;;;;;6.69;44.22;98232.38;5042115;28;20443;-71
2022/05/22 02:10:19;;;;;;;3.45;2.22;;;;;;;6.69;43.81;98214.69;5041579;28;20130;-69
2022/05/22 02:12:47;;;;;;;5.75;3.35;;;;;;;6.74;43.70;98219.66;5055382;28;20043;-70
2022/05/22 02:15:12;;;;;;;5.07;2.80;;;;;;;6.72;43.75;98216.28;5054382;28;20036;-69
2022/05/22 02:17:36;;;;;;;8.63;3.13;;;;;;;6.76;43.74;98221.22;5049554;28;20051;-69
2022/05/22 02:20:02;;;;;;;6.03;2.85;;;;;;;6.87;43.90;98215.91;5042363;28;20093;-71
2022/05/22 02:22:49;;;;;;;5.05;2.78;;;;;;;6.97;43.08;98220.47;5074196;28;20043;-72
2022/05/22 02:25:18;;;;;;;4.45;3.03;;;;;;;6.97;43.19;98220.47;5055867;28;20048;-73
2022/05/22 02:27:43;;;;;;;3.55;2.78;;;;;;;6.93;43.40;98218.06;5038435;28;20191;-68
2022/05/22 02:30:12;;;;;;;7.70;3.35;;;;;;;7.06;43.28;98220.59;5071252;28;20520;-72
2022/05/22 02:32:37;;;;;;;5.70;2.67;;;;;;;7.12;42.66;98208.63;5044834;28;20043;-68
2022/05/22 02:35:06;;;;;;;3.40;2.30;;;;;;;7.19;42.92;98215.16;5057229;28;20092;-67
2022/05/22 02:37:31;;;;;;;5.97;2.95;;;;;;;7.21;42.74;98219.38;5075493;28;20040;-72
2022/05/22 02:39:59;;;;;;;3.42;2.50;;;;;;;7.32;42.75;98221.16;5058825;28;20149;-68
2022/05/22 02:42:56;;;;;;;5.72;2.47;;;;;;;7.40;42.75;98212.56;5013076;28;20052;-70
2022/05/22 02:45:28;;;;;;;6.10;2.58;;;;;;;7.42;42.31;98224.75;4995985;28;20114;-70
2022/05/22 02:48:00;;;;;;;3.95;2.42;;;;;;;7.44;42.10;98214.00;4996337;28;20037;-69
2022/05/22 02:50:27;;;;;;;2.95;2.50;;;;;;;7.49;42.18;98217.13;4996043;28;20047;-69
2022/05/22 02:52:58;;;;;;;2.20;1.83;;;;;;;7.53;41.87;98224.72;4995903;28;20111;-68
2022/05/22 02:55:28;;;;;;;3.30;2.35;;;;;;;7.53;42.22;98218.56;4979693;28;20507;-67
2022/05/22 02:57:53;;;;;;;4.55;3.38;;;;;;;7.52;42.14;98215.06;5012737;28;20094;-68
2022/05/22 03:00:25;;;;;;;5.32;3.05;;;;;;;7.65;42.56;98223.72;5012540;28;20056;-68
2022/05/22 03:02:54;;;;;;;6.85;2.60;;;;;;;7.79;41.53;98219.88;4995453;28;20120;-70
2022/05/22 03:05:19;;;;;;;11.13;3.55;;;;;;;7.85;41.75;98218.56;4994663;28;20057;-69
2022/05/22 03:07:44;;;;;;;5.03;2.72;;;;;;;7.90;41.78;98213.72;4961841;28;20083;-70
2022/05/22 03:10:35;;;;;;;7.68;2.80;;;;;;;7.98;41.89;98208.59;4995992;28;20052;-70
2022/05/22 03:13:02;;;;;;;5.50;2.38;;;;;;;8.14;41.64;98216.94;4986679;28;20049;-69
2022/05/22 03:15:32;;;;;;;4.95;2.40;;;;;;;8.23;41.38;98216.19;4978506;28;20500;-70
2022/05/22 03:17:57;;;;;;;5.18;2.15;;;;;;;8.33;40.82;98219.78;4992912;28;20054;-71
2022/05/22 03:20:22;;;;;;;4.55;3.05;;;;;;;8.44;40.71;98215.38;5035724;28;20075;-71
2022/05/22 03:22:47;;;;;;;6.95;3.22;;;;;;;8.52;40.85;98213.75;5037504;28;20063;-70
2022/05/22 03:25:15;;;;;;;4.20;2.65;;;;;;;8.52;40.98;98208.44;5057109;28;20421;-72
2022/05/22 03:27:40;;;;;;;4.78;2.53;;;;;;;8.57;40.94;98210.69;5023042;28;20449;-71
2022/05/22 03:30:06;;;;;;;7.80;2.97;;;;;;;8.61;40.72;98212.94;5023213;28;20093;-70
2022/05/22 03:32:32;;;;;;;6.90;3.45;;;;;;;8.69;40.42;98215.75;5056734;28;20564;-71
2022/05/22 03:35:00;;;;;;;7.40;2.95;;;;;;;8.68;40.58;98213.28;5062477;28;20524;-70
2022/05/22 03:37:25;;;;;;;4.13;2.78;;;;;;;8.67;40.48;98211.59;5046410;28;20046;-71
2022/05/22 03:39:51;;;;;;;5.70;3.22;;;;;;;8.78;40.28;98218.63;5063684;28;20139;-69
2022/05/22 03:42:17;;;;;;;6.72;2.90;;;;;;;8.83;40.54;98205.75;5048491;28;20085;-71
2022/05/22 03:44:41;;;;;;;8.40;3.42;;;;;;;8.96;40.45;98207.22;5060769;28;20047;-71
2022/05/22 03:47:06;;;;;;;5.22;3.05;;;;;;;9.05;39.92;98202.91;5057107;28;20039;-72
2022/05/22 03:49:51;;;;;;;6.53;3.05;;;;;;;9.13;39.97;98200.44;5070063;28;20264;-70
2022/05/22 03:52:16;;;;;;;3.17;2.85;;;;;;;9.16;40.07;98208.13;5031903;28;20082;-71
2022/05/22 03:54:41;;;;;;;4.72;2.70;;;;;;;9.27;39.49;98197.38;5060527;28;20073;-71
2022/05/22 03:57:09;;;;;;;5.20;2.63;;;;;;;9.27;39.22;98200.03;5029595;28;20589;-71
2022/05/22 03:59:38;;;;;;;3.25;2.58;;;;;;;9.28;39.27;98203.53;5025687;28;20043;-71
2022/05/22 04:02:03;;;;;;;3.85;2.53;;;;;;;9.31;39.06;98190.81;5025402;28;20514;-71
2022/05/22 04:04:28;;;;;;;3.20;2.35;;;;;;;9.37;38.99;98184.94;5058601;28;20135;-71
2022/05/22 04:06:56;;;;;;;4.97;3.25;;;;;;;9.39;39.20;98190.94;5007512;28;20581;-71
2022/05/22 04:09:27;;;;;;;7.38;3.22;;;;;;;9.51;39.88;98189.00;5024899;28;20503;-72
2022/05/22 04:11:59;;;;;;;3.33;2.70;;;;;;;9.60;39.14;98187.34;5023879;28;20109;-71
2022/05/22 04:14:24;;;;;;;4.60;2.97;;;;;;;9.70;38.94;98189.06;5040514;28;20044;-71
2022/05/22 04:16:59;;;;;;;6.20;3.20;;;;;;;9.75;38.99;98189.44;5023664;28;20177;-71
2022/05/22 04:19:24;;;;;;;5.63;3.58;;;;;;;9.79;38.56;98180.22;5057099;28;20119;-71
2022/05/22 04:21:49;;;;;;;4.35;3.35;;;;;;;9.89;38.37;98185.53;5040459;28;20043;-73
2022/05/22 04:27:08;;;;;;;4.70;3.15;;;;;;;10.27;37.99;98184.66;5060206;28;20052;-72
2022/05/22 04:29:35;;;;;;;5.18;3.38;;;;;;;10.33;37.68;98189.44;5060110;28;20055;-72
2022/05/22 04:32:01;;;;;;;5.20;3.00;;;;;;;10.47;37.43;98185.47;5060064;28;20099;-71
2022/05/22 04:34:34;;;;;;;5.47;2.92;;;;;;;10.49;37.16;98189.69;5044086;28;20039;-73
2022/05/22 04:37:06;;;;;;;3.20;2.67;;;;;;;10.73;37.50;98180.31;5044295;28;20096;-72
2022/05/22 04:39:40;;;;;;;6.50;3.25;;;;;;;10.90;36.75;98174.22;5061376;28;20111;-72
2022/05/22 04:42:05;;;;;;;5.28;3.22;;;;;;;11.06;36.40;98182.41;5045125;28;20355;-70
2022/05/22 04:44:30;;;;;;;14.43;4.82;;;;;;;11.24;35.68;98187.81;5046648;28;20043;-71
2022/05/22 04:47:15;;;;;;;4.72;2.95;;;;;;;11.50;35.46;98179.94;5067578;28;20043;-70
2022/05/22 04:49:40;;;;;;;3.80;2.67;;;;;;;11.66;35.09;98174.75;5029397;28;20491;-71
2022/05/22 04:52:05;;;;;;;4.88;3.28;;;;;;;11.88;35.06;98176.97;5045591;28;20532;-72
2022/05/22 04:54:30;;;;;;;5.05;3.20;;;;;;;12.19;34.73;98176.59;5064698;28;20497;-70
2022/05/22 04:57:01;;;;;;;6.65;3.22;;;;;;;12.52;34.01;98178.50;5056415;28;20041;-72
2022/05/22 04:59:26;;;;;;;11.43;3.50;;;;;;;12.82;33.87;98176.31;5067540;28;20055;-72
2022/05/22 05:01:51;;;;;;;7.95;3.13;;;;;;;13.06;33.70;98177.25;5055026;28;20027;-71
2022/05/22 05:04:21;;;;;;;7.95;3.55;;;;;;;13.24;33.07;98176.34;5047044;28;20043;-73
2022/05/22 05:07:06;;;;;;;;;;;;;;;13.41;33.08;98178.94;5063575;28;20050;-70
2022/05/22 05:09:52;;;;;;;6.35;2.80;;;;;;;13.44;32.73;98175.06;5027303;28;19917;-71
2022/05/22 05:12:38;;;;;;;4.78;2.83;;;;;;;13.48;32.53;98180.94;5001590;28;20135;-72
2022/05/22 05:15:05;;;;;;;5.25;2.97;;;;;;;13.63;32.52;98180.16;5002601;28;20041;-72
2022/05/22 05:17:30;;;;;;;7.10;3.67;;;;;;;13.84;32.76;98178.84;5001600;28;20539;-72
2022/05/22 05:19:56;;;;;;;8.70;2.90;;;;;;;14.01;31.59;98178.66;4984823;28;20044;-69
2022/05/22 05:22:21;;;;;;;11.18;4.40;;;;;;;13.99;31.23;98183.38;4999967;28;20068;-69
2022/05/22 05:24:57;;;;;;;7.07;3.78;;;;;;;13.85;31.12;98186.72;4968097;28;20044;-71
2022/05/22 05:27:28;;;;;;;3.42;2.60;;;;;;;13.85;31.52;98189.38;4998902;28;20052;-71
2022/05/22 05:30:05;;;;;;;5.10;3.13;;;;;;;13.92;31.15;98176.16;5021890;28;20067;-70
2022/05/22 05:32:36;;;;;;;5.45;3.30;;;;;;;13.91;31.00;98177.16;5005136;28;20059;-71
2022/05/22 05:35:07;;;;;;;4.55;2.80;;;;;;;13.99;31.46;98180.69;4982280;28;20049;-72
2022/05/22 05:37:34;;;;;;;4.03;2.42;;;;;;;13.90;29.83;98184.34;4999155;28;20455;-72
2022/05/22 05:40:08;;;;;;;4.13;2.75;;;;;;;13.72;30.57;98172.97;4998749;28;20057;-71
2022/05/22 05:42:40;;;;;;;4.97;2.53;;;;;;;13.81;30.65;98182.69;4998023;28;20406;-70
2022/05/22 05:45:07;;;;;;;4.90;3.10;;;;;;;14.08;30.40;98181.53;4981294;28;20056;-71
2022/05/22 05:47:44;;;;;;;7.03;2.78;;;;;;;14.35;29.63;98188.38;5030168;28;20075;-72
2022/05/22 05:50:14;;;;;;;4.30;2.80;;;;;;;14.78;29.26;98182.66;5025245;28;20410;-71
2022/05/22 05:53:02;;;;;;;4.47;2.25;;;;;;;15.25;28.38;98173.75;5044813;28;20087;-72
2022/05/22 05:55:43;;;;;;;5.57;2.78;;;;;;;15.78;28.21;98175.69;5061559;28;20043;-72
2022/05/22 05:58:28;;;;;;;4.00;2.28;;;;;;;16.34;27.00;98182.47;4958264;28;20144;-73
2022/05/22 06:00:59;;;;;;;5.45;3.03;;;;;;;16.79;25.99;98186.09;4975027;28;20057;-72
2022/05/22 06:03:27;;;;;;;2.70;2.20;;;;;;;17.30;25.55;98186.16;4941967;28;20041;-71
2022/05/22 06:05:54;;;;;;;3.53;2.65;;;;;;;17.89;24.71;98180.69;4976074;28;20162;-71
2022/05/22 06:08:31;;;;;;;4.28;2.75;;;;;;;18.36;23.28;98190.88;4975100;28;20552;-72
2022/05/22 06:11:13;;;;;;;3.03;2.50;;;;;;;18.81;22.99;98186.91;4958273;28;20042;-72
2022/05/22 06:13:42;;;;;;;3.05;2.38;;;;;;;19.68;22.91;98175.53;4976111;28;20053;-73
2022/05/22 06:16:08;;;;;;;3.20;2.90;;;;;;;20.41;21.98;98174.66;4961627;28;20057;-73
2022/05/22 06:18:43;;;;;;;5.20;3.28;;;;;;;20.93;21.34;98178.38;4977252;28;20535;-72
2022/05/22 06:21:17;;;;;;;6.05;2.63;;;;;;;21.13;20.99;98187.28;4946661;28;20054;-72
2022/05/22 06:23:43;;;;;;;3.35;2.83;;;;;;;21.23;20.53;98176.84;4958357;28;20049;-71
2022/05/22 06:26:09;;;;;;;4.43;3.00;;;;;;;21.29;20.24;98176.03;4974754;28;20504;-72
2022/05/22 06:28:47;;;;;;;4.05;2.72;;;;;;;21.71;20.41;98179.19;4974371;28;20089;-73
2022/05/22 06:31:33;;;;;;;10.30;3.60;;;;;;;22.16;19.96;98169.13;4974631;28;20104;-72
2022/05/22 06:34:16;;;;;;;6.85;3.55;;;;;;;22.05;19.46;98181.53;4974473;28;20033;-73
2022/05/22 06:36:47;;;;;;;5.10;3.25;;;;;;;22.07;19.71;98173.16;5058089;28;20486;-71
2022/05/22 06:42:15;;;;;;;3.85;3.55;;;;;;;22.19;19.55;98176.84;5057561;28;20032;-73
2022/05/22 06:44:43;;;;;;;4.57;3.08;;;;;;;22.58;19.21;98174.84;5057224;28;20543;-72
2022/05/22 06:47:45;;;;;;;5.18;2.92;;;;;;;23.24;18.72;98187.88;5013074;28;20036;-71
2022/05/22 06:50:21;;;;;;;5.22;2.67;;;;;;;23.51;18.48;98181.91;5013277;28;20057;-72
2022/05/22 06:53:06;;;;;;;4.32;2.90;;;;;;;23.51;18.09;98187.34;5013457;28;20048;-72
2022/05/22 06:56:06;;;;;;;5.63;3.28;;;;;;;24.11;17.90;98189.28;4957364;28;20493;-72
2022/05/22 06:58:35;;;;;;;3.55;2.85;;;;;;;24.93;17.80;98185.72;4957191;28;20058;-72
2022/05/22 07:01:19;;;;;;;5.20;3.60;;;;;;;25.81;17.07;98181.09;4973754;28;20104;-71
2022/05/22 07:03:56;;;;;;;5.43;3.50;;;;;;;26.30;16.06;98182.31;4975465;28;20057;-71
2022/05/22 07:06:36;;;;;;;4.90;3.05;;;;;;;27.09;16.11;98183.09;4975710;28;20100;-71
2022/05/22 07:09:13;;;;;;;5.28;3.75;;;;;;;27.01;14.43;98181.63;4973853;28;20058;-70
2022/05/22 07:11:54;;;;;;;6.55;3.33;;;;;;;27.41;14.86;98186.03;4974172;28;20177;-71
2022/05/22 07:14:18;;;;;;;6.35;3.10;;;;;;;28.26;14.06;98185.44;4974698;28;20041;-71
2022/05/22 07:17:03;;;;;;;9.23;3.35;;;;;;;29.11;13.96;98180.97;4973480;28;20416;-72
2022/05/22 07:19:37;;;;;;;5.25;3.70;;;;;;;29.91;13.32;98185.25;4958762;28;20549;-72
2022/05/22 07:22:19;;;;;;;7.75;3.45;;;;;;;30.08;12.81;98182.28;4957803;28;20534;-70
2022/05/22 07:24:52;;;;;;;7.57;3.10;;;;;;;29.75;12.36;98187.09;4998068;28;20049;-71
2022/05/22 07:27:20;;;;;;;5.25;3.35;;;;;;;30.06;12.74;98167.97;4981930;28;20047;-71
2022/05/22 07:30:06;;;;;;;3.47;3.28;;;;;;;29.56;12.16;98188.66;5004835;28;20052;-72
2022/05/22 07:32:50;;;;;;;4.22;3.70;;;;;;;29.33;12.36;98191.81;5042043;28;20043;-72
2022/05/22 07:35:33;;;;;;;5.25;3.28;;;;;;;29.54;12.30;98183.44;5065980;27;20063;-74
2022/05/22 07:38:36;;;;;;;6.13;3.35;;;;;;;30.51;12.26;98181.81;5026591;28;20108;-70
2022/05/22 07:41:24;;;;;;;7.68;3.88;;;;;;;31.90;11.59;98189.63;5029763;28;20047;-73
2022/05/22 07:44:28;;;;;;;5.28;3.10;;;;;;;33.58;11.03;98183.63;4951486;28;20070;-72
2022/05/22 07:47:12;;;;;;;8.07;3.75;;;;;;;34.92;10.41;98185.94;4969236;28;20054;-72
2022/05/22 07:52:50;;;;;;;7.18;4.18;;;;;;;35.15;9.66;98186.91;4959675;28;20081;-72
2022/05/22 07:55:34;;;;;;;5.18;3.75;;;;;;;35.47;9.58;98191.59;4943054;28;20054;-71
2022/05/22 07:58:18;;;;;;;;;;;;;;;36.54;10.88;98181.88;4959546;28;20050;-70
2022/05/22 08:00:43;;;;;;;5.15;3.97;;;;;;;36.34;9.00;98172.06;4958553;28;19928;-70
2022/05/22 08:03:14;;;;;;;7.05;4.40;;;;;;;36.37;8.50;98180.56;4958100;28;20069;-72
2022/05/22 08:05:41;;;;;;;5.90;4.20;;;;;;;36.38;9.08;98178.63;4941306;28;20054;-73
2022/05/22 08:08:08;;;;;;;8.07;4.70;;;;;;;36.45;8.28;98180.97;4957563;28;20679;-72
2022/05/22 08:11:05;;;;;;;6.50;4.00;;;;;;;36.71;8.67;98173.69;4919113;29;20066;-73
2022/05/22 08:13:44;;;;;;;5.05;4.43;;;;;;;36.94;8.41;98169.75;4903062;29;20523;-73
2022/05/22 08:16:10;;;;;;;6.53;4.55;;;;;;;37.17;8.51;98166.97;4936283;28;20102;-73
2022/05/22 08:18:37;;;;;;;6.85;4.60;;;;;;;37.67;8.19;98182.28;4937378;28;20050;-72
2022/05/22 08:21:02;;;;;;;5.80;5.05;;;;;;;37.99;7.93;98172.72;4993586;28;20058;-73
2022/05/22 08:23:30;;;;;;;8.88;5.15;;;;;;;38.31;7.93;98165.09;4976053;28;20054;-73
2022/05/22 08:26:00;;;;;;;5.78;4.72;;;;;;;38.66;7.61;98161.19;4975678;28;20492;-72
2022/05/22 08:28:27;;;;;;;8.98;4.90;;;;;;;38.45;7.34;98163.78;4976258;28;20061;-73
2022/05/22 08:30:52;;;;;;;6.10;4.78;;;;;;;37.54;7.12;98180.41;4976536;28;20061;-73
2022/05/22 08:33:18;;;;;;;5.80;4.70;;;;;;;36.55;7.21;98175.19;4975829;28;20129;-73
2022/05/22 08:35:44;;;;;;;6.90;5.43;;;;;;;35.43;7.24;98176.75;4992188;28;20176;-74
2022/05/22 08:38:10;;;;;;;5.18;4.68;;;;;;;35.18;7.64;98166.91;4976298;28;20049;-73
2022/05/22 08:41:07;;;;;;;5.95;5.35;;;;;;;35.85;8.22;98183.94;4976087;28;20112;-72
2022/05/22 08:43:38;;;;;;;5.70;4.20;;;;;;;35.94;7.36;98165.44;4992353;28;20173;-72
2022/05/22 08:46:13;;;;;;;5.97;4.88;;;;;;;36.42;7.50;98167.72;5001048;28;20063;-75
2022/05/22 08:48:44;;;;;;;6.72;4.65;;;;;;;37.27;7.79;98161.13;5064518;28;20071;-75
2022/05/22 08:51:16;;;;;;;5.88;5.28;;;;;;;38.32;7.14;98153.63;5091925;28;20418;-73
2022/05/22 08:53:48;;;;;;;5.65;4.82;;;;;;;38.72;7.15;98167.41;5064716;28;20074;-75
2022/05/22 08:59:20;;;;;;;9.05;6.07;;;;;;;38.84;6.64;98159.19;5082815;28;20055;-73
2022/05/22 09:02:10;;;;;;;7.45;5.45;;;;;;;39.17;6.87;98151.09;5073462;28;20100;-74
2022/05/22 09:04:45;;;;;;;6.60;5.38;;;;;;;39.02;6.26;98160.84;5043051;28;20417;-72
2022/05/22 09:07:10;;;;;;;6.57;5.68;;;;;;;39.77;6.49;98150.88;5060123;28;20055;-76
2022/05/22 09:09:38;;;;;;;6.05;5.57;;;;;;;40.71;6.04;98170.16;5078262;28;20039;-74
2022/05/22 09:12:46;;;;;;;9.43;5.78;;;;;;;40.99;5.46;98162.78;5075674;28;20024;-74
2022/05/22 09:15:20;;;;;;;7.28;6.13;;;;;;;41.22;5.61;98163.22;5022355;28;20076;-72
2022/05/22 09:18:18;;;;;;;6.82;6.22;;;;;;;41.71;6.21;98169.72;4989138;28;20049;-73
2022/05/22 09:20:55;;;;;;;7.47;6.78;;;;;;;41.50;5.43;98169.81;4996612;28;20065;-74
2022/05/22 09:23:31;;;;;;;6.80;6.20;;;;;;;41.31;5.42;98175.16;4979100;28;20124;-74
2022/05/22 09:26:48;;;;;;;7.22;5.82;;;;;;;41.39;5.50;98157.44;4963168;28;20488;-74
2022/05/22 09:29:26;;;;;;;7.07;5.93;;;;;;;40.58;5.79;98155.28;4917506;29;20055;-72
2022/05/22 09:32:15;;;;;;;11.80;6.57;;;;;;;40.43;5.88;98165.09;4871360;29;20146;-71
2022/05/22 09:35:11;;;;;;;5.95;5.45;;;;;;;39.55;5.44;98156.72;4918336;29;20163;-71
2022/05/22 09:37:47;;;;;;;9.32;6.15;;;;;;;38.49;5.60;98147.22;4886187;29;20050;-72
2022/05/22 09:40:21;;;;;;;6.20;5.60;;;;;;;38.17;5.86;98151.31;4901411;29;20043;-71
2022/05/22 09:43:22;;;;;;;6.43;5.82;;;;;;;39.03;6.09;98145.75;4901623;29;20059;-72
2022/05/22 09:46:04;;;;;;;6.07;5.13;;;;;;;39.44;5.53;98149.91;4916943;28;20462;-70
2022/05/22 09:48:28;;;;;;;7.38;5.80;;;;;;;38.49;5.65;98136.09;4917257;28;20057;-72
2022/05/22 09:51:14;;;;;;;5.47;5.03;;;;;;;39.25;5.73;98141.09;4995090;28;20056;-71
2022/05/22 09:53:47;;;;;;;6.30;5.80;;;;;;;39.97;5.09;98152.09;4994606;28;20061;-71
2022/05/22 09:56:46;;;;;;;11.70;6.38;;;;;;;40.67;4.79;98155.19;4994352;28;20045;-73
2022/05/22 09:59:27;;;;;;;5.50;5.05;;;;;;;41.17;5.32;98136.31;4958492;28;20049;-72
2022/05/22 10:01:56;;;;;;;6.60;6.00;;;;;;;41.66;4.61;98151.19;4974667;28;20042;-72
2022/05/22 10:04:52;;;;;;;8.93;6.32;;;;;;;42.77;4.79;98137.81;4982920;28;20053;-71
2022/05/22 10:07:22;;;;;;;8.20;7.40;;;;;;;43.42;4.29;98142.81;4994365;28;20448;-74
2022/05/22 10:10:07;;;;;;;7.97;7.18;;;;;;;44.54;4.10;98147.91;4995901;28;20049;-73
2022/05/22 10:12:41;;;;;;;8.15;7.18;;;;;;;44.31;4.15;98152.59;5001895;28;20080;-73
2022/05/22 10:15:25;;;;;;;8.13;7.53;;;;;;;44.30;4.04;98148.97;4988672;28;20076;-73
2022/05/22 10:18:28;;;;;;;8.77;8.07;;;;;;;44.79;4.03;98152.06;5008078;28;20064;-72
2022/05/22 10:21:25;;;;;;;9.38;8.68;;;;;;;45.01;3.53;98141.25;4984502;28;20045;-74
2022/05/22 10:24:27;;;;;;;12.05;8.82;;;;;;;45.71;4.19;98141.72;4992241;28;20041;-73
2022/05/22 10:27:08;;;;;;;8.55;7.85;;;;;;;42.85;4.41;98129.25;5008811;28;20486;-72
2022/05/22 10:29:56;;;;;;;7.65;6.80;;;;;;;38.31;5.48;98129.72;5014344;28;20076;-73
2022/05/22 10:32:43;;;;;;;8.65;5.25;;;;;;;33.27;7.11;98114.09;4991135;28;20052;-72
2022/05/22 10:35:08;;;;;;;5.60;4.90;;;;;;;29.05;9.14;98111.50;5010833;28;20077;-73
2022/05/22 10:37:37;;;;;;;7.90;4.60;;;;;;;26.70;9.72;98105.63;5041279;28;20078;-73
2022/05/22 10:40:05;;;;;;;5.05;4.53;;;;;;;24.57;10.88;98117.78;5057632;28;20478;-73
2022/05/22 10:42:49;;;;;;;6.28;3.92;;;;;;;22.94;11.66;98108.91;5081579;27;20042;-71
2022/05/22 10:45:33;;;;;;;5.55;4.03;;;;;;;21.58;12.28;98103.28;5063558;27;20035;-72
2022/05/22 10:48:23;;;;;;;6.88;4.85;;;;;;;20.25;13.45;98094.66;5110793;27;20497;-71
2022/05/22 10:50:58;;;;;;;13.77;8.32;;;;;;;19.32;14.87;98105.50;5050298;27;20487;-73
2022/05/22 10:53:46;;;;;;;5.60;3.83;;;;;;;18.90;14.55;98104.72;5043752;28;20181;-72
2022/05/22 10:56:14;;;;;;;9.10;5.10;;;;;;;18.21;16.86;98112.72;5049708;28;20051;-72
2022/05/22 10:58:40;;;;;;;4.63;3.47;;;;;;;17.64;17.73;98102.88;5062772;28;20055;-72
2022/05/22 11:01:15;;;;;;;6.00;4.00;;;;;;;17.36;17.32;98101.94;5078933;28;20046;-72
2022/05/22 11:03:39;;;;;;;7.43;3.83;;;;;;;17.02;17.03;98099.88;5087554;27;20050;-73
2022/05/22 11:06:17;;;;;;;8.38;5.05;;;;;;;16.69;17.95;98104.81;5086012;27;20046;-72
2022/05/22 11:08:48;;;;;;;4.93;3.60;;;;;;;16.23;18.23;98102.22;5030972;28;20040;-72
2022/05/22 11:11:15;;;;;;;5.80;3.50;;;;;;;15.74;18.47;98109.03;5060947;28;20043;-71
2022/05/22 11:13:41;;;;;;;5.60;3.75;;;;;;;15.51;19.71;98101.78;5090663;28;20047;-71
2022/05/22 11:16:17;;;;;;;6.43;3.80;;;;;;;15.46;19.94;98101.47;5068943;28;20097;-71
2022/05/22 11:18:42;;;;;;;7.13;3.78;;;;;;;15.38;19.82;98100.69;5083924;27;20085;-71
2022/05/22 11:21:23;;;;;;;3.70;3.13;;;;;;;15.24;19.43;98096.91;5041491;28;20410;-71
2022/05/22 11:24:07;;;;;;;9.00;3.53;;;;;;;15.12;20.91;98093.78;5041044;28;20074;-73
2022/05/22 11:26:42;;;;;;;14.75;3.53;;;;;;;15.04;20.17;98107.25;5045075;28;20054;-71
2022/05/22 11:29:37;;;;;;;7.38;3.45;;;;;;;14.98;19.67;98112.50;5085676;28;20039;-72
2022/05/22 11:32:23;;;;;;;8.93;4.70;;;;;;;14.92;19.74;98115.84;5032868;27;20047;-70
2022/05/22 11:35:02;;;;;;;5.28;3.55;;;;;;;14.79;20.17;98108.34;5075498;28;20048;-70
2022/05/22 11:37:40;;;;;;;4.65;3.30;;;;;;;14.70;19.85;98112.06;5074355;28;20039;-76
2022/05/22 11:40:19;;;;;;;3.92;3.00;;;;;;;14.36;19.42;98107.78;5072331;28;20531;-74
2022/05/22 11:42:44;;;;;;;9.13;3.88;;;;;;;14.05;20.29;98110.34;5096345;28;20035;-73
2022/05/22 11:45:14;;;;;;;7.78;4.05;;;;;;;13.85;20.89;98116.22;5100664;28;20043;-68
2022/05/22 11:47:45;;;;;;;19.55;7.40;;;;;;;13.71;21.34;98115.03;5091110;28;20448;-65
2022/05/22 11:50:32;;;;;;;9.10;4.22;;;;;;;13.66;22.20;98114.69;5086747;27;20039;-66
2022/05/22 11:53:21;;;;;;;5.80;3.97;;;;;;;13.64;21.74;98117.56;5087849;28;20158;-68
2022/05/22 11:55:58;;;;;;;6.38;3.83;;;;;;;13.59;21.72;98125.25;5056530;28;20044;-63
2022/05/22 11:59:02;;;;;;;4.55;3.35;;;;;;;13.58;21.54;98123.56;5056491;28;20536;-64
2022/05/22 12:01:55;;;;;;;7.85;4.03;;;;;;;13.37;21.57;98110.66;5055594;28;20142;-66
2022/05/22 12:04:52;;;;;;;8.27;4.32;;;;;;;13.12;22.69;98111.56;5056221;28;20126;-68
2022/05/22 12:07:44;;;;;;;7.72;3.30;;;;;;;13.10;22.43;98114.38;5031935;28;20128;-70
2022/05/22 12:10:24;;;;;;;11.63;3.40;;;;;;;13.14;22.69;98103.38;5005322;28;20049;-69
2022/05/22 12:13:05;;;;;;;3.80;2.83;;;;;;;13.11;23.46;98115.22;5026869;28;20052;-71
2022/05/22 12:15:48;;;;;;;5.43;2.92;;;;;;;13.18;22.75;98107.44;5020931;28;20036;-68
2022/05/22 12:18:38;;;;;;;7.82;2.95;;;;;;;13.18;23.00;98110.94;5024301;28;20052;-68
2022/05/22 12:21:12;;;;;;;4.22;3.47;;;;;;;13.18;23.25;98127.00;4998937;28;20045;-67
2022/05/22 12:23:48;;;;;;;7.82;3.58;;;;;;;13.16;23.67;98115.63;4999013;28;20052;-71
2022/05/22 12:26:14;;;;;;;4.47;3.33;;;;;;;13.09;23.04;98109.22;5016620;28;20464;-69